Time;durP1;ratioP1;P1;durP2;ratioP2;P2;SDS_P1;SDS_P2;PMS_P1;PMS_P2;Temp;Humidity;BMP_temperature;BMP_pressure;BME280_temperature;BME280_humidity;BME280_pressure;Samples;Min_cycle;Max_cycle;Signal;HPM_P1;HPM_P2
2021/10/03 00:00:26;;;;;;;46.27;42.97;;;;;;;13.26;100.00;99212.00;2030478;70;26161;-73
2021/10/03 00:05:54;;;;;;;45.80;42.60;;;;;;;13.28;100.00;99197.70;1941148;74;33495;-73
2021/10/03 00:11:20;;;;;;;45.57;42.07;;;;;;;13.20;100.00;99207.78;1941115;74;33072;-72
2021/10/03 00:16:47;;;;;;;46.60;43.40;;;;;;;13.18;100.00;99205.33;1941246;74;32993;-80
2021/10/03 00:22:12;;;;;;;47.20;44.03;;;;;;;13.11;100.00;99215.41;1941100;74;33007;-72
2021/10/03 00:27:37;;;;;;;47.07;43.97;;;;;;;13.13;100.00;99226.47;1941155;74;33491;-72
2021/10/03 00:33:02;;;;;;;49.40;46.10;;;;;;;13.04;100.00;99223.48;1940933;74;33074;-72
2021/10/03 00:38:27;;;;;;;47.33;44.13;;;;;;;13.03;100.00;99240.78;1941151;74;33489;-81
2021/10/03 00:43:59;;;;;;;47.87;44.57;;;;;;;12.96;100.00;99243.31;1940948;74;32998;-81
2021/10/03 00:49:24;;;;;;;47.77;44.63;;;;;;;13.02;100.00;99268.41;1941182;74;33615;-80
2021/10/03 00:54:48;;;;;;;47.57;44.27;;;;;;;12.93;100.00;99282.98;1941134;74;33070;-71
2021/10/03 01:00:15;;;;;;;47.67;44.37;;;;;;;12.93;100.00;99271.02;1940939;74;32997;-81
2021/10/03 01:05:59;;;;;;;48.80;45.43;;;;;;;12.86;100.00;99266.00;2013420;71;32890;-81
2021/10/03 01:11:24;;;;;;;48.73;45.53;;;;;;;12.83;100.00;99275.62;1941120;74;33530;-81
2021/10/03 01:16:49;;;;;;;47.57;44.37;;;;;;;12.80;100.00;99288.23;1941184;74;33574;-80
2021/10/03 01:22:36;;;;;;;47.87;44.57;;;;;;;12.77;100.00;99268.84;2013063;71;33355;-80
2021/10/03 01:28:03;;;;;;;49.10;45.70;;;;;;;12.72;100.00;99265.43;1941019;74;32986;-81
2021/10/03 01:33:48;;;;;;;49.60;46.00;;;;;;;12.73;100.00;99278.21;2014945;71;33461;-80
2021/10/03 01:39:12;;;;;;;47.80;44.33;;;;;;;12.57;100.00;99279.39;1940927;74;33052;-72
2021/10/03 01:44:37;;;;;;;47.47;44.23;;;;;;;12.61;100.00;99299.02;1940955;74;32986;-81
2021/10/03 01:50:01;;;;;;;46.87;43.63;;;;;;;12.57;100.00;99314.77;1940950;74;32978;-72
2021/10/03 01:55:27;;;;;;;48.83;45.47;;;;;;;12.52;100.00;99303.81;1940907;74;32984;-80
2021/10/03 02:00:54;;;;;;;45.83;42.70;;;;;;;12.50;100.00;99308.89;1941011;74;33475;-80
2021/10/03 02:06:19;;;;;;;46.77;43.57;;;;;;;12.40;100.00;99285.63;1941012;74;33535;-79
2021/10/03 02:11:50;;;;;;;46.97;43.87;;;;;;;12.40;100.00;99287.84;1940844;74;33057;-72
2021/10/03 02:17:15;;;;;;;46.67;43.57;;;;;;;12.37;100.00;99306.58;1941040;74;33482;-80
2021/10/03 02:22:41;;;;;;;47.47;44.17;;;;;;;12.32;100.00;99310.37;1940488;74;33101;-81
2021/10/03 02:28:06;;;;;;;46.40;43.23;;;;;;;12.32;100.00;99329.06;1941081;74;33466;-80
2021/10/03 02:33:31;;;;;;;45.60;42.40;;;;;;;12.28;100.00;99300.23;1940903;74;32992;-80
2021/10/03 02:38:56;;;;;;;45.63;42.37;;;;;;;12.26;100.00;99288.62;1941043;74;33462;-72
2021/10/03 02:44:22;;;;;;;48.23;45.03;;;;;;;12.12;100.00;99299.16;1940870;74;32992;-72
2021/10/03 02:49:47;;;;;;;49.67;46.23;;;;;;;12.11;100.00;99283.60;1941066;74;33488;-72
2021/10/03 02:55:12;;;;;;;47.07;43.87;;;;;;;12.16;100.00;99295.95;1941085;74;33566;-81
2021/10/03 03:00:38;;;;;;;44.60;41.63;;;;;;;12.04;100.00;99288.30;1940971;74;32988;-81
2021/10/03 03:06:04;;;;;;;46.77;43.13;;;;;;;12.06;100.00;99300.50;1941161;74;33446;-72
2021/10/03 03:11:29;;;;;;;47.50;44.13;;;;;;;12.07;100.00;99318.24;1940939;74;33050;-71
2021/10/03 03:16:54;;;;;;;46.53;43.43;;;;;;;11.91;100.00;99303.23;1941085;74;32975;-71
2021/10/03 03:22:25;;;;;;;45.90;42.50;;;;;;;11.92;100.00;99306.84;1940946;74;33015;-80
2021/10/03 03:27:50;;;;;;;47.80;44.50;;;;;;;11.90;100.00;99297.42;1941039;74;32993;-80
2021/10/03 03:33:15;;;;;;;46.30;42.93;;;;;;;11.97;100.00;99303.31;1940956;74;32984;-72
2021/10/03 03:38:40;;;;;;;46.07;42.83;;;;;;;11.96;100.00;99299.47;1941123;74;32992;-72
2021/10/03 03:44:04;;;;;;;46.63;43.43;;;;;;;11.99;100.00;99313.52;1940900;74;32993;-71
2021/10/03 03:49:31;;;;;;;47.80;44.50;;;;;;;11.98;100.00;99325.00;1940923;74;32990;-81
2021/10/03 03:54:55;;;;;;;45.23;41.97;;;;;;;11.89;100.00;99315.86;1940864;74;33055;-79
2021/10/03 04:00:21;;;;;;;46.10;42.97;;;;;;;11.83;100.00;99319.39;1934089;74;39435;-80
2021/10/03 04:05:45;;;;;;;48.50;44.90;;;;;;;11.97;100.00;99315.84;1940885;74;33043;-81
2021/10/03 04:11:11;;;;;;;45.40;42.20;;;;;;;11.75;100.00;99321.61;1941018;74;32997;-72
2021/10/03 04:16:35;;;;;;;46.50;43.07;;;;;;;11.58;100.00;99312.70;1941031;74;32972;-81
2021/10/03 04:22:01;;;;;;;48.33;44.73;;;;;;;11.51;100.00;99332.42;1941041;74;33622;-81
2021/10/03 04:27:25;;;;;;;45.53;42.33;;;;;;;11.56;100.00;99325.27;1941090;74;33484;-72
2021/10/03 04:32:49;;;;;;;45.00;41.80;;;;;;;11.37;100.00;99346.48;1941052;74;33000;-82
2021/10/03 04:38:14;;;;;;;45.97;42.77;;;;;;;11.35;100.00;99353.75;1940812;74;33090;-72
2021/10/03 04:43:38;;;;;;;43.80;40.80;;;;;;;11.34;100.00;99342.38;1940907;74;33080;-80
2021/10/03 04:49:03;;;;;;;44.23;40.93;;;;;;;11.26;100.00;99357.09;1940809;74;33095;-71
2021/10/03 04:54:27;;;;;;;46.47;42.90;;;;;;;11.24;100.00;99368.30;1940965;74;33039;-72
2021/10/03 04:59:51;;;;;;;44.37;40.97;;;;;;;11.32;100.00;99371.09;1941198;74;32979;-80
2021/10/03 05:05:15;;;;;;;42.93;39.80;;;;;;;11.28;100.00;99394.30;1940971;74;33094;-72
2021/10/03 05:10:43;;;;;;;41.80;38.63;;;;;;;11.37;100.00;99396.52;1940983;74;33049;-80
2021/10/03 05:16:07;;;;;;;43.53;40.40;;;;;;;11.41;100.00;99373.88;1941211;74;32986;-81
2021/10/03 05:21:35;;;;;;;45.00;41.60;;;;;;;11.43;100.00;99378.52;1940902;74;33110;-79
2021/10/03 05:27:01;;;;;;;46.70;43.43;;;;;;;11.38;100.00;99373.14;1941171;74;33574;-80
2021/10/03 05:32:45;;;;;;;50.33;46.70;;;;;;;11.39;100.00;99371.98;2009917;71;32878;-81
2021/10/03 05:38:10;;;;;;;50.50;47.17;;;;;;;11.40;100.00;99382.78;1941100;74;33484;-72
2021/10/03 05:43:37;;;;;;;52.70;48.97;;;;;;;11.37;100.00;99376.50;1941068;74;31118;-80
2021/10/03 05:49:01;;;;;;;45.43;42.27;;;;;;;11.42;100.00;99388.81;1940880;74;33071;-80
2021/10/03 05:54:25;;;;;;;45.90;42.67;;;;;;;11.56;100.00;99410.09;1941182;74;33496;-72
2021/10/03 05:59:50;;;;;;;49.73;46.17;;;;;;;11.40;100.00;99425.88;1940962;74;33511;-71
2021/10/03 06:05:14;;;;;;;49.73;46.47;;;;;;;11.53;100.00;99437.16;1941093;74;33509;-71
2021/10/03 06:10:39;;;;;;;51.50;48.20;;;;;;;11.43;100.00;99444.67;1941112;74;33145;-72
2021/10/03 06:16:04;;;;;;;50.07;46.57;;;;;;;11.36;100.00;99449.91;1940923;74;32976;-72
2021/10/03 06:21:28;;;;;;;50.00;46.37;;;;;;;11.62;100.00;99459.67;1941092;74;33476;-72
2021/10/03 06:26:54;;;;;;;48.53;45.10;;;;;;;11.51;100.00;99458.94;1941021;74;32985;-71
2021/10/03 06:32:18;;;;;;;48.67;45.17;;;;;;;11.27;100.00;99432.96;1940853;74;33102;-78
2021/10/03 06:37:43;;;;;;;47.20;43.90;;;;;;;11.23;100.00;99452.82;1941194;74;33078;-78
2021/10/03 06:43:09;;;;;;;51.20;47.47;;;;;;;11.34;100.00;99466.08;1941110;74;33640;-72
2021/10/03 06:48:36;;;;;;;52.63;49.23;;;;;;;11.51;100.00;99472.84;1940983;74;32970;-72
2021/10/03 06:54:01;;;;;;;48.43;45.13;;;;;;;11.54;100.00;99488.86;1940987;74;33056;-78
2021/10/03 06:59:25;;;;;;;50.57;46.73;;;;;;;11.39;100.00;99496.51;1941367;74;33550;-78
2021/10/03 07:04:50;;;;;;;49.17;45.57;;;;;;;11.38;100.00;99510.16;1940925;74;32980;-72
2021/10/03 07:10:14;;;;;;;51.13;47.60;;;;;;;11.43;100.00;99541.16;1940928;74;32974;-72
2021/10/03 07:15:39;;;;;;;52.10;48.60;;;;;;;11.48;100.00;99547.97;1941184;74;32957;-72
2021/10/03 07:21:04;;;;;;;50.07;46.50;;;;;;;11.56;100.00;99555.51;1940817;74;32974;-72
2021/10/03 07:26:28;;;;;;;50.10;46.73;;;;;;;11.66;100.00;99577.47;1940916;74;32988;-71
2021/10/03 07:31:53;;;;;;;51.83;48.37;;;;;;;11.53;100.00;99582.58;1941247;74;33465;-72
2021/10/03 07:37:17;;;;;;;48.03;44.57;;;;;;;11.66;100.00;99585.81;1941182;74;33493;-71
2021/10/03 07:42:44;;;;;;;50.13;46.63;;;;;;;11.58;100.00;99607.47;1941021;74;33579;-71
2021/10/03 07:48:10;;;;;;;55.40;51.90;;;;;;;11.79;100.00;99612.72;1940924;74;32994;-80
2021/10/03 07:53:34;;;;;;;54.33;50.63;;;;;;;11.78;100.00;99618.02;1941023;74;33442;-71
2021/10/03 07:59:02;;;;;;;50.60;47.20;;;;;;;11.76;100.00;99625.06;1941055;74;33019;-71
2021/10/03 08:04:27;;;;;;;53.10;49.50;;;;;;;11.84;100.00;99647.91;1940871;74;33051;-71
2021/10/03 08:09:52;;;;;;;50.43;46.63;;;;;;;11.91;100.00;99634.91;1941143;74;32976;-79
2021/10/03 08:15:17;;;;;;;54.27;50.87;;;;;;;12.04;100.00;99619.47;1940951;74;33094;-79
2021/10/03 08:20:43;;;;;;;50.37;47.00;;;;;;;12.00;100.00;99621.84;1941010;74;33518;-80
2021/10/03 08:26:27;;;;;;;49.37;46.03;;;;;;;12.15;100.00;99633.91;2009696;71;32821;-80
2021/10/03 08:31:51;;;;;;;47.93;44.00;;;;;;;12.17;100.00;99626.86;1940908;74;33043;-80
2021/10/03 08:37:16;;;;;;;51.10;47.80;;;;;;;12.36;100.00;99648.84;1940860;74;33087;-78
2021/10/03 08:42:41;;;;;;;49.63;46.37;;;;;;;12.36;100.00;99650.23;1940906;74;32985;-74
2021/10/03 08:48:08;;;;;;;49.80;46.43;;;;;;;12.40;100.00;99660.97;1941120;74;32979;-79
2021/10/03 08:53:32;;;;;;;44.97;41.77;;;;;;;12.44;100.00;99663.34;1940875;74;32982;-72
2021/10/03 08:58:57;;;;;;;47.40;44.30;;;;;;;12.55;100.00;99669.39;1940862;74;33077;-76
2021/10/03 09:04:29;;;;;;;44.57;41.70;;;;;;;12.51;100.00;99668.41;1941036;74;32977;-71
2021/10/03 09:10:03;;;;;;;44.93;41.83;;;;;;;12.64;100.00;99678.58;1941037;74;33591;-78
2021/10/03 09:15:29;;;;;;;44.33;41.43;;;;;;;12.78;100.00;99695.95;1940841;74;33083;-71
2021/10/03 09:20:53;;;;;;;43.20;40.27;;;;;;;13.02;100.00;99702.41;1940799;74;32993;-81
2021/10/03 09:26:23;;;;;;;45.30;42.10;;;;;;;13.00;100.00;99705.55;1941146;74;33082;-80
2021/10/03 09:32:08;;;;;;;44.97;42.10;;;;;;;13.09;100.00;99704.14;1940907;74;33056;-81
2021/10/03 09:37:34;;;;;;;43.43;40.73;;;;;;;13.25;100.00;99711.44;1940837;74;32996;-80
2021/10/03 09:43:03;;;;;;;45.30;42.60;;;;;;;13.32;100.00;99719.54;1940890;74;32999;-73
2021/10/03 09:48:29;;;;;;;46.90;44.03;;;;;;;13.36;100.00;99718.30;1940869;74;33038;-80
2021/10/03 09:53:55;;;;;;;48.53;45.63;;;;;;;13.58;100.00;99717.52;1941092;74;33106;-77
2021/10/03 09:59:20;;;;;;;46.73;44.23;;;;;;;13.72;100.00;99723.47;1941075;74;33611;-73
2021/10/03 10:04:45;;;;;;;45.53;42.90;;;;;;;13.65;100.00;99737.34;1941090;74;33565;-73
2021/10/03 10:10:12;;;;;;;47.03;44.43;;;;;;;13.88;100.00;99735.71;1940925;74;33025;-80
2021/10/03 10:15:41;;;;;;;48.80;46.03;;;;;;;13.85;100.00;99740.00;1940891;74;32991;-79
2021/10/03 10:21:22;;;;;;;44.20;41.77;;;;;;;14.07;100.00;99734.17;1940861;74;33096;-72
2021/10/03 10:26:47;;;;;;;43.00;40.80;;;;;;;14.13;100.00;99734.20;1941084;74;33093;-80
2021/10/03 10:33:15;;;;;;;43.03;40.80;;;;;;;14.39;100.00;99728.52;1940995;74;33057;-80
2021/10/03 10:38:40;;;;;;;42.83;40.63;;;;;;;14.51;100.00;99730.56;1940847;74;32977;-73
2021/10/03 10:44:41;;;;;;;37.30;35.30;;;;;;;14.72;100.00;99741.19;1941229;74;33028;-73
2021/10/03 10:50:17;;;;;;;34.60;32.93;;;;;;;14.90;100.00;99734.31;1940888;74;33022;-81
2021/10/03 10:55:42;;;;;;;35.63;33.60;;;;;;;14.96;100.00;99742.75;1940846;74;32941;-72
2021/10/03 11:01:13;;;;;;;36.07;34.07;;;;;;;15.04;100.00;99732.64;1941096;74;32953;-81
2021/10/03 11:07:00;;;;;;;31.47;29.80;;;;;;;15.30;100.00;99741.63;1941010;74;33005;-72
2021/10/03 11:09:53;;;;;;;30.67;29.27;;;;;;;15.21;100.00;99746.48;1904841;75;26191;-72
2021/10/03 11:15:31;;;;;;;27.77;26.37;;;;;;;15.32;100.00;99739.86;1940948;74;33733;-84
2021/10/03 11:21:01;;;;;;;31.87;30.13;;;;;;;15.51;100.00;99735.19;1940936;74;33061;-84
2021/10/03 11:26:26;;;;;;;31.50;29.87;;;;;;;15.52;100.00;99741.85;1941239;74;33441;-84
2021/10/03 11:31:55;;;;;;;29.40;27.70;;;;;;;15.74;100.00;99742.03;1940929;74;33005;-84
2021/10/03 11:37:29;;;;;;;28.73;27.27;;;;;;;15.75;100.00;99737.47;1941408;74;33528;-83
2021/10/03 11:43:00;;;;;;;28.93;27.23;;;;;;;15.90;100.00;99755.01;1941270;74;33082;-84
2021/10/03 11:48:46;;;;;;;27.93;26.40;;;;;;;16.06;100.00;99770.55;2009342;71;33014;-84
2021/10/03 11:54:11;;;;;;;27.40;26.00;;;;;;;16.09;100.00;99770.45;1941200;74;33015;-83
2021/10/03 11:59:35;;;;;;;25.30;23.90;;;;;;;15.77;100.00;99766.53;1941142;74;33558;-85
2021/10/03 12:05:11;;;;;;;25.90;24.43;;;;;;;16.07;100.00;99776.97;1941118;74;31186;-73
2021/10/03 12:10:39;;;;;;;26.10;24.80;;;;;;;16.15;100.00;99771.84;1941051;74;33118;-85
2021/10/03 12:16:17;;;;;;;26.13;24.70;;;;;;;16.25;100.00;99789.61;1941153;74;31556;-73
2021/10/03 12:22:06;;;;;;;24.13;22.83;;;;;;;16.10;100.00;99786.89;2009714;71;32847;-85
2021/10/03 12:27:30;;;;;;;19.33;18.43;;;;;;;16.48;100.00;99783.77;1940912;74;31048;-71
2021/10/03 12:33:01;;;;;;;20.37;19.27;;;;;;;16.64;100.00;99788.95;1941001;74;33490;-72
2021/10/03 12:38:26;;;;;;;20.90;19.90;;;;;;;16.52;100.00;99811.33;1940957;74;33008;-72
2021/10/03 12:43:55;;;;;;;24.77;23.37;;;;;;;16.75;100.00;99801.89;1941192;74;31054;-81
2021/10/03 12:49:20;;;;;;;22.00;20.80;;;;;;;16.77;100.00;99802.37;1941179;74;31642;-81
2021/10/03 12:54:47;;;;;;;21.90;20.60;;;;;;;16.96;100.00;99796.95;1941392;74;31186;-81
2021/10/03 13:00:15;;;;;;;19.33;18.20;;;;;;;16.98;100.00;99799.42;1941618;74;31581;-82
2021/10/03 13:05:48;;;;;;;20.53;19.47;;;;;;;16.68;100.00;99806.70;1977767;72;31073;-76
2021/10/03 13:11:13;;;;;;;26.13;24.43;;;;;;;17.11;100.00;99803.26;1941188;74;31574;-75
2021/10/03 13:16:37;;;;;;;27.20;25.40;;;;;;;18.00;100.00;99807.25;1941174;74;31074;-78
2021/10/03 13:24:48;;;;;;;22.10;20.70;;;;;;;18.17;100.00;99811.13;2061137;69;30672;-71
2021/10/03 13:27:18;;;;;;;19.50;18.50;;;;;;;18.25;100.00;99841.63;2030605;71;24178;-78
2021/10/03 13:29:48;;;;;;;20.53;19.53;;;;;;;17.65;100.00;99821.11;2030635;71;26156;-73
2021/10/03 13:32:19;;;;;;;30.13;28.37;;;;;;;17.08;100.00;99836.80;2030615;70;26697;-73
2021/10/03 13:34:49;;;;;;;41.87;39.97;;;;;;;16.67;100.00;99895.37;2030657;71;24543;-73
2021/10/03 13:37:19;;;;;;;46.60;44.20;;;;;;;15.65;100.00;99917.66;2030724;70;24170;-80
2021/10/03 13:39:50;;;;;;;50.43;47.57;;;;;;;15.09;100.00;99910.62;2030619;71;26225;-79
2021/10/03 13:42:21;;;;;;;53.73;51.03;;;;;;;14.69;100.00;99898.97;2030613;71;26229;-74
2021/10/03 13:44:51;;;;;;;56.13;53.27;;;;;;;14.50;100.00;99902.20;2030773;71;26159;-73
2021/10/03 13:47:22;;;;;;;56.10;53.00;;;;;;;14.68;100.00;99905.71;2030526;70;26207;-70
2021/10/03 13:49:53;;;;;;;53.07;50.27;;;;;;;14.79;100.00;99907.00;2030555;70;26234;-78
2021/10/03 13:52:23;;;;;;;50.47;47.73;;;;;;;14.97;100.00;99907.16;2030582;71;26204;-72
2021/10/03 13:54:54;;;;;;;51.77;49.07;;;;;;;15.07;100.00;99908.72;2030533;70;26297;-84
2021/10/03 13:57:24;;;;;;;50.67;48.07;;;;;;;15.19;100.00;99918.02;2030528;70;26270;-72
2021/10/03 13:59:54;;;;;;;49.00;46.47;;;;;;;15.31;100.00;99911.71;2030519;70;26726;-73
2021/10/03 14:02:24;;;;;;;48.63;46.00;;;;;;;15.39;100.00;99918.66;2030553;71;26659;-71
2021/10/03 14:04:54;;;;;;;47.03;44.53;;;;;;;15.43;100.00;99910.39;2030514;71;26621;-73
2021/10/03 14:07:24;;;;;;;45.30;43.07;;;;;;;15.43;100.00;99913.19;2030577;71;26172;-74
2021/10/03 14:09:54;;;;;;;45.60;42.90;;;;;;;15.51;100.00;99919.91;2030522;70;26163;-72
2021/10/03 14:12:25;;;;;;;43.03;40.93;;;;;;;15.71;100.00;99915.70;2030646;71;26611;-74
2021/10/03 14:14:56;;;;;;;40.80;38.80;;;;;;;15.57;100.00;99912.38;2030569;71;26209;-72
2021/10/03 14:17:26;;;;;;;41.40;39.30;;;;;;;15.62;100.00;99916.92;2030453;71;26708;-74
2021/10/03 14:19:56;;;;;;;39.33;37.43;;;;;;;15.72;100.00;99929.95;2030741;70;24113;-73
2021/10/03 14:22:27;;;;;;;42.17;39.93;;;;;;;15.74;100.00;99929.62;2007278;71;26220;-77
2021/10/03 14:24:57;;;;;;;39.43;37.37;;;;;;;15.71;100.00;99931.67;1982705;72;26275;-76
2021/10/03 14:27:27;;;;;;;38.77;36.77;;;;;;;15.70;100.00;99934.27;1980143;72;26167;-74
2021/10/03 14:29:57;;;;;;;37.80;35.80;;;;;;;15.77;100.00;99928.34;1980175;72;26165;-72
2021/10/03 14:35:22;;;;;;;40.97;38.93;;;;;;;16.08;100.00;99926.50;1941546;74;33111;-79
2021/10/03 14:40:47;;;;;;;37.50;35.70;;;;;;;16.11;100.00;99923.59;1941017;74;31128;-76
2021/10/03 14:46:12;;;;;;;36.57;34.73;;;;;;;16.14;100.00;99946.13;1940960;74;31221;-77
2021/10/03 14:51:37;;;;;;;38.27;36.10;;;;;;;16.02;100.00;99943.85;1940874;74;33097;-73
2021/10/03 14:57:02;;;;;;;39.23;37.17;;;;;;;15.90;100.00;99963.66;1940859;74;33052;-72
2021/10/03 15:02:26;;;;;;;42.13;39.63;;;;;;;15.86;100.00;99976.70;1941073;74;32996;-75
2021/10/03 15:07:51;;;;;;;45.03;42.43;;;;;;;16.04;100.00;99978.78;1940887;74;31157;-80
2021/10/03 15:13:21;;;;;;;43.83;41.10;;;;;;;16.06;100.00;99998.84;1941040;74;31677;-75
2021/10/03 15:18:45;;;;;;;46.47;43.97;;;;;;;16.01;100.00;99995.42;1941082;74;33115;-71
2021/10/03 15:24:14;;;;;;;41.43;39.10;;;;;;;15.98;100.00;100006.75;1941004;74;33160;-77
2021/10/03 15:29:39;;;;;;;42.23;40.07;;;;;;;16.02;100.00;100005.48;1940984;74;33190;-74
2021/10/03 15:35:03;;;;;;;43.23;40.57;;;;;;;16.09;100.00;100013.56;1941269;74;31535;-75
2021/10/03 15:40:28;;;;;;;41.63;39.73;;;;;;;16.06;100.00;100031.64;1940988;74;31058;-74
2021/10/03 15:45:52;;;;;;;43.20;41.00;;;;;;;16.05;100.00;100041.20;1940936;74;32958;-73
2021/10/03 15:51:19;;;;;;;40.40;38.50;;;;;;;16.02;100.00;100050.30;1941236;74;33049;-76
2021/10/03 15:56:44;;;;;;;37.30;35.40;;;;;;;16.05;100.00;100066.41;1941146;74;33545;-73
2021/10/03 16:02:15;;;;;;;39.20;37.37;;;;;;;15.93;100.00;100067.16;1940956;74;33073;-71
2021/10/03 16:07:39;;;;;;;35.40;33.60;;;;;;;15.90;100.00;100080.45;1940878;74;32955;-74
2021/10/03 16:13:04;;;;;;;38.43;36.63;;;;;;;15.74;100.00;100076.03;1941290;74;33034;-80
2021/10/03 16:18:50;;;;;;;33.33;31.57;;;;;;;15.72;100.00;100088.72;2009816;71;32896;-79
2021/10/03 16:24:16;;;;;;;35.30;33.60;;;;;;;15.71;100.00;100092.66;1941199;74;33470;-75
2021/10/03 16:29:40;;;;;;;37.63;35.83;;;;;;;15.74;100.00;100101.81;1941134;74;33068;-78
2021/10/03 16:35:06;;;;;;;39.37;37.57;;;;;;;15.69;100.00;100103.39;1941030;74;32941;-74
2021/10/03 16:40:31;;;;;;;35.80;34.03;;;;;;;15.75;100.00;100125.25;1941510;74;33033;-81
2021/10/03 16:45:55;;;;;;;37.27;35.37;;;;;;;15.68;100.00;100143.17;1941436;74;33028;-80
2021/10/03 16:51:20;;;;;;;37.33;35.53;;;;;;;15.71;100.00;100150.06;1941383;74;33004;-80
2021/10/03 16:56:46;;;;;;;38.03;36.10;;;;;;;15.60;100.00;100169.80;1941317;74;32998;-80
2021/10/03 17:02:11;;;;;;;38.27;36.23;;;;;;;15.60;100.00;100183.22;1941321;74;32956;-80
2021/10/03 17:07:37;;;;;;;40.23;37.97;;;;;;;15.58;100.00;100192.52;1941089;74;33108;-84
2021/10/03 17:13:03;;;;;;;40.53;38.23;;;;;;;15.43;100.00;100213.46;1940995;74;33052;-76
2021/10/03 17:18:28;;;;;;;40.67;38.27;;;;;;;15.29;100.00;100232.98;1941445;74;32975;-81
2021/10/03 17:23:53;;;;;;;40.87;38.57;;;;;;;15.44;100.00;100237.50;1941471;74;33475;-75
2021/10/03 17:29:18;;;;;;;40.70;38.50;;;;;;;15.36;100.00;100255.70;1941035;74;33418;-75
2021/10/03 17:34:42;;;;;;;47.40;44.70;;;;;;;15.04;100.00;100269.62;1940947;74;33084;-76
2021/10/03 17:40:11;;;;;;;46.63;44.00;;;;;;;14.95;100.00;100281.37;1940849;74;33071;-83
2021/10/03 17:45:37;;;;;;;46.87;44.37;;;;;;;14.73;100.00;100288.51;1941029;74;33023;-83
2021/10/03 17:51:02;;;;;;;48.10;45.20;;;;;;;14.76;100.00;100299.06;1940926;74;33008;-82
2021/10/03 17:56:26;;;;;;;50.73;47.60;;;;;;;14.66;100.00;100313.33;1941336;74;33051;-81
2021/10/03 18:01:53;;;;;;;48.70;46.00;;;;;;;14.66;100.00;100327.31;1941241;74;33464;-81
2021/10/03 18:07:18;;;;;;;47.63;44.67;;;;;;;14.44;100.00;100333.25;1940931;74;32985;-74
2021/10/03 18:12:43;;;;;;;49.93;46.93;;;;;;;14.21;100.00;100347.57;1940988;74;32990;-72
2021/10/03 18:18:08;;;;;;;52.17;48.87;;;;;;;14.33;100.00;100352.83;1941104;74;33091;-82
2021/10/03 18:23:33;;;;;;;52.07;48.67;;;;;;;14.30;100.00;100365.20;1907552;75;33068;-82
2021/10/03 18:28:57;;;;;;;50.50;47.10;;;;;;;14.18;100.00;100378.95;1941199;74;32972;-77
2021/10/03 18:34:21;;;;;;;50.30;47.00;;;;;;;14.25;100.00;100385.72;1940936;74;33146;-75
2021/10/03 18:39:46;;;;;;;54.80;51.20;;;;;;;14.22;100.00;100403.13;1941127;74;33450;-74
2021/10/03 18:45:11;;;;;;;52.63;49.17;;;;;;;14.08;100.00;100412.98;1940906;74;33051;-78
2021/10/03 18:50:36;;;;;;;52.63;49.23;;;;;;;14.14;100.00;100424.28;1941040;74;34285;-76
2021/10/03 18:56:01;;;;;;;51.63;48.17;;;;;;;14.07;100.00;100425.32;1940987;74;32988;-71
2021/10/03 19:01:25;;;;;;;52.37;48.90;;;;;;;13.92;100.00;100428.48;1941028;74;33533;-76
2021/10/03 19:06:50;;;;;;;50.33;47.03;;;;;;;14.03;100.00;100439.64;1941074;74;33059;-75
2021/10/03 19:12:16;;;;;;;54.27;50.87;;;;;;;13.88;100.00;100442.83;1941354;74;33526;-75
2021/10/03 19:17:41;;;;;;;52.27;48.77;;;;;;;13.92;100.00;100454.18;1941319;74;33021;-79
2021/10/03 19:23:07;;;;;;;52.33;48.87;;;;;;;13.84;100.00;100468.91;1941100;74;33474;-81
2021/10/03 19:28:31;;;;;;;51.10;47.77;;;;;;;13.72;100.00;100475.05;1941315;74;33501;-74
2021/10/03 19:33:57;;;;;;;51.93;48.50;;;;;;;13.63;100.00;100493.69;1941026;74;33061;-75
2021/10/03 19:39:25;;;;;;;52.00;48.20;;;;;;;13.62;100.00;100503.19;1940963;74;32984;-73
2021/10/03 19:44:50;;;;;;;52.73;49.30;;;;;;;13.68;100.00;100511.15;1941441;74;33033;-76
2021/10/03 19:50:14;;;;;;;53.53;49.77;;;;;;;13.44;100.00;100523.69;1941704;74;33100;-75
2021/10/03 19:55:48;;;;;;;52.77;49.17;;;;;;;13.46;100.00;100528.39;1940922;74;32975;-78
2021/10/03 20:01:14;;;;;;;52.30;48.83;;;;;;;13.51;100.00;100547.82;1941126;74;33261;-76
2021/10/03 20:06:40;;;;;;;50.67;47.27;;;;;;;13.44;100.00;100552.98;1941314;74;32958;-78
2021/10/03 20:12:06;;;;;;;51.23;47.83;;;;;;;13.34;100.00;100559.63;1941251;74;33464;-73
2021/10/03 20:17:32;;;;;;;52.47;49.00;;;;;;;13.37;100.00;100572.11;1941249;74;33490;-80
2021/10/03 20:22:56;;;;;;;52.57;48.77;;;;;;;13.35;100.00;100573.80;1941002;74;32997;-81
2021/10/03 20:28:21;;;;;;;51.13;47.63;;;;;;;13.26;100.00;100592.42;1941548;74;33442;-76
2021/10/03 20:33:46;;;;;;;52.10;48.30;;;;;;;13.26;100.00;100605.55;1941237;74;32978;-75
2021/10/03 20:39:14;;;;;;;52.97;49.07;;;;;;;13.19;100.00;100607.33;1941429;74;33044;-75
2021/10/03 20:44:37;;;;;;;53.57;49.73;;;;;;;13.01;100.00;100618.78;1941119;74;33048;-76
2021/10/03 20:50:02;;;;;;;52.17;48.47;;;;;;;12.94;100.00;100623.11;1941008;74;33012;-72
2021/10/03 20:55:27;;;;;;;53.27;49.13;;;;;;;12.82;100.00;100632.53;1940840;74;33056;-77
2021/10/03 21:00:51;;;;;;;52.10;48.47;;;;;;;12.74;100.00;100644.66;1940864;74;32980;-76
2021/10/03 21:06:17;;;;;;;51.10;47.33;;;;;;;12.61;100.00;100654.34;1940940;74;33081;-74
2021/10/03 21:11:42;;;;;;;52.43;48.33;;;;;;;12.55;100.00;100661.13;1941324;74;32996;-76
2021/10/03 21:17:07;;;;;;;54.67;50.40;;;;;;;12.53;100.00;100674.55;1941253;74;32974;-76
2021/10/03 21:22:33;;;;;;;51.30;47.30;;;;;;;12.47;100.00;100679.36;1941017;74;33080;-72
2021/10/03 21:27:58;;;;;;;52.57;48.30;;;;;;;12.45;100.00;100683.59;1941168;74;33526;-78
2021/10/03 21:33:22;;;;;;;52.17;48.17;;;;;;;12.70;100.00;100688.77;1941182;74;33644;-71
2021/10/03 21:38:47;;;;;;;52.63;48.53;;;;;;;12.68;100.00;100693.80;1940977;74;32968;-78
2021/10/03 21:44:11;;;;;;;52.90;48.50;;;;;;;12.56;100.00;100692.88;1941417;74;33042;-76
2021/10/03 21:49:36;;;;;;;49.97;46.07;;;;;;;12.42;100.00;100704.50;1941136;74;33475;-79
2021/10/03 21:55:01;;;;;;;51.80;47.67;;;;;;;12.23;100.00;100713.42;1941283;74;32982;-72
2021/10/03 22:00:31;;;;;;;51.60;47.30;;;;;;;12.35;100.00;100724.12;1941040;74;32983;-72
2021/10/03 22:06:00;;;;;;;52.63;48.30;;;;;;;12.08;100.00;100726.14;1941141;74;32956;-72
2021/10/03 22:11:26;;;;;;;51.40;47.30;;;;;;;12.18;100.00;100734.38;1941507;74;32970;-77
2021/10/03 22:16:50;;;;;;;52.27;48.20;;;;;;;12.09;100.00;100738.95;1941094;74;33472;-79
2021/10/03 22:22:14;;;;;;;51.40;47.23;;;;;;;11.76;100.00;100756.88;1941210;74;33035;-77
2021/10/03 22:27:58;;;;;;;50.50;46.37;;;;;;;11.57;100.00;100758.72;2013247;71;32919;-79
2021/10/03 22:33:23;;;;;;;51.50;47.50;;;;;;;11.46;100.00;100760.52;1940950;74;33021;-79
2021/10/03 22:38:48;;;;;;;52.00;47.40;;;;;;;11.58;100.00;100765.95;1941203;74;33503;-79
2021/10/03 22:44:12;;;;;;;49.43;45.53;;;;;;;11.61;100.00;100781.20;1941231;74;33461;-71
2021/10/03 22:49:39;;;;;;;46.17;42.43;;;;;;;11.81;100.00;100801.33;1941226;74;33077;-72
2021/10/03 22:55:07;;;;;;;49.77;45.70;;;;;;;11.77;100.00;100801.66;1941190;74;33116;-76
2021/10/03 23:00:33;;;;;;;48.83;44.80;;;;;;;11.73;100.00;100820.06;1941174;74;32987;-76
2021/10/03 23:05:58;;;;;;;48.43;44.43;;;;;;;11.70;100.00;100820.63;1941112;74;32981;-72
2021/10/03 23:11:22;;;;;;;48.33;44.40;;;;;;;11.67;100.00;100824.00;1941377;74;33477;-75
2021/10/03 23:16:47;;;;;;;49.37;44.83;;;;;;;11.70;100.00;100817.01;1941153;74;32994;-76
2021/10/03 23:22:11;;;;;;;47.40;43.60;;;;;;;11.79;100.00;100816.67;1941182;74;33047;-76